sensor_id;sensor_type;location;lat;lon;timestamp;temperature;humidity
16198;DHT22;8206;51.440;6.914;2023-04-09T00:00:02;7.50;15.70
16198;DHT22;8206;51.440;6.914;2023-04-09T00:02:29;7.40;99.90
16198;DHT22;8206;51.440;6.914;2023-04-09T00:04:56;7.40;93.50
16198;DHT22;8206;51.440;6.914;2023-04-09T00:07:23;7.40;1.00
16198;DHT22;8206;51.440;6.914;2023-04-09T00:09:49;7.30;1.00
16198;DHT22;8206;51.440;6.914;2023-04-09T00:12:16;7.30;99.90
16198;DHT22;8206;51.440;6.914;2023-04-09T00:14:44;7.30;99.90
16198;DHT22;8206;51.440;6.914;2023-04-09T00:17:11;7.20;1.00
16198;DHT22;8206;51.440;6.914;2023-04-09T00:19:37;7.20;1.00
16198;DHT22;8206;51.440;6.914;2023-04-09T00:22:04;7.20;99.90
16198;DHT22;8206;51.440;6.914;2023-04-09T00:24:31;7.10;1.00
16198;DHT22;8206;51.440;6.914;2023-04-09T00:26:57;7.10;1.00
16198;DHT22;8206;51.440;6.914;2023-04-09T00:29:24;7.10;80.50
16198;DHT22;8206;51.440;6.914;2023-04-09T00:31:53;7.10;99.90
16198;DHT22;8206;51.440;6.914;2023-04-09T00:34:19;7.10;1.00
16198;DHT22;8206;51.440;6.914;2023-04-09T00:36:46;7.00;1.00
16198;DHT22;8206;51.440;6.914;2023-04-09T00:39:12;7.00;1.00
16198;DHT22;8206;51.440;6.914;2023-04-09T00:41:39;7.00;99.90
16198;DHT22;8206;51.440;6.914;2023-04-09T00:44:06;6.90;99.90
16198;DHT22;8206;51.440;6.914;2023-04-09T00:46:33;6.90;1.00
16198;DHT22;8206;51.440;6.914;2023-04-09T00:49:01;6.80;1.00
16198;DHT22;8206;51.440;6.914;2023-04-09T00:51:27;6.70;1.00
16198;DHT22;8206;51.440;6.914;2023-04-09T00:53:54;6.70;1.00
16198;DHT22;8206;51.440;6.914;2023-04-09T00:56:22;6.60;99.90
16198;DHT22;8206;51.440;6.914;2023-04-09T00:58:49;6.60;99.90
16198;DHT22;8206;51.440;6.914;2023-04-09T01:01:15;6.60;99.90
16198;DHT22;8206;51.440;6.914;2023-04-09T01:03:42;6.50;1.00
16198;DHT22;8206;51.440;6.914;2023-04-09T01:06:17;6.50;99.90
16198;DHT22;8206;51.440;6.914;2023-04-09T01:08:50;6.40;99.90
16198;DHT22;8206;51.440;6.914;2023-04-09T01:11:27;6.40;99.90
16198;DHT22;8206;51.440;6.914;2023-04-09T01:14:04;6.30;99.90
16198;DHT22;8206;51.440;6.914;2023-04-09T01:16:33;6.20;99.90
16198;DHT22;8206;51.440;6.914;2023-04-09T01:19:08;6.20;99.90
16198;DHT22;8206;51.440;6.914;2023-04-09T01:21:37;6.20;99.90
16198;DHT22;8206;51.440;6.914;2023-04-09T01:24:18;6.10;1.00
16198;DHT22;8206;51.440;6.914;2023-04-09T01:26:54;6.10;99.90
16198;DHT22;8206;51.440;6.914;2023-04-09T01:29:24;6.10;99.90
16198;DHT22;8206;51.440;6.914;2023-04-09T01:31:53;6.10;99.90
16198;DHT22;8206;51.440;6.914;2023-04-09T01:34:21;6.10;99.90
16198;DHT22;8206;51.440;6.914;2023-04-09T01:36:52;6.10;99.90
16198;DHT22;8206;51.440;6.914;2023-04-09T01:39:20;6.00;99.90
16198;DHT22;8206;51.440;6.914;2023-04-09T01:41:48;6.00;99.90
16198;DHT22;8206;51.440;6.914;2023-04-09T01:44:16;5.90;99.90
16198;DHT22;8206;51.440;6.914;2023-04-09T01:46:45;6.00;99.90
16198;DHT22;8206;51.440;6.914;2023-04-09T01:49:12;6.00;99.90
16198;DHT22;8206;51.440;6.914;2023-04-09T01:51:40;6.00;1.00
16198;DHT22;8206;51.440;6.914;2023-04-09T01:54:07;6.00;99.90
16198;DHT22;8206;51.440;6.914;2023-04-09T01:56:41;6.10;99.90
16198;DHT22;8206;51.440;6.914;2023-04-09T01:59:08;6.10;99.90
16198;DHT22;8206;51.440;6.914;2023-04-09T02:01:37;6.10;99.90
16198;DHT22;8206;51.440;6.914;2023-04-09T02:04:12;6.20;1.00
16198;DHT22;8206;51.440;6.914;2023-04-09T02:06:44;6.20;1.00
16198;DHT22;8206;51.440;6.914;2023-04-09T02:09:15;6.10;1.00
16198;DHT22;8206;51.440;6.914;2023-04-09T02:11:45;6.10;1.00
16198;DHT22;8206;51.440;6.914;2023-04-09T02:14:13;6.10;1.00
16198;DHT22;8206;51.440;6.914;2023-04-09T02:16:41;6.00;1.00
16198;DHT22;8206;51.440;6.914;2023-04-09T02:19:09;5.90;1.00
16198;DHT22;8206;51.440;6.914;2023-04-09T02:21:36;5.90;13.10
16198;DHT22;8206;51.440;6.914;2023-04-09T02:24:03;5.80;95.30
16198;DHT22;8206;51.440;6.914;2023-04-09T02:26:29;5.70;99.90
16198;DHT22;8206;51.440;6.914;2023-04-09T02:28:56;5.70;99.90
16198;DHT22;8206;51.440;6.914;2023-04-09T02:31:23;5.60;99.90
16198;DHT22;8206;51.440;6.914;2023-04-09T02:33:50;5.50;99.90
16198;DHT22;8206;51.440;6.914;2023-04-09T02:36:18;5.50;55.80
16198;DHT22;8206;51.440;6.914;2023-04-09T02:38:45;5.40;11.80
16198;DHT22;8206;51.440;6.914;2023-04-09T02:41:11;5.40;1.00
16198;DHT22;8206;51.440;6.914;2023-04-09T02:43:38;5.30;1.00
16198;DHT22;8206;51.440;6.914;2023-04-09T02:46:06;5.30;1.00
16198;DHT22;8206;51.440;6.914;2023-04-09T02:48:32;5.20;1.00
16198;DHT22;8206;51.440;6.914;2023-04-09T02:50:59;5.20;99.90
16198;DHT22;8206;51.440;6.914;2023-04-09T02:53:27;5.10;1.00
16198;DHT22;8206;51.440;6.914;2023-04-09T02:55:54;5.00;99.90
16198;DHT22;8206;51.440;6.914;2023-04-09T02:58:20;5.00;1.00
16198;DHT22;8206;51.440;6.914;2023-04-09T03:00:47;5.00;99.90
16198;DHT22;8206;51.440;6.914;2023-04-09T03:03:13;4.90;99.90
16198;DHT22;8206;51.440;6.914;2023-04-09T03:05:40;4.90;72.90
16198;DHT22;8206;51.440;6.914;2023-04-09T03:08:07;4.80;99.90
16198;DHT22;8206;51.440;6.914;2023-04-09T03:10:35;4.80;99.90
16198;DHT22;8206;51.440;6.914;2023-04-09T03:13:02;4.70;99.90
16198;DHT22;8206;51.440;6.914;2023-04-09T03:15:28;4.70;99.90
16198;DHT22;8206;51.440;6.914;2023-04-09T03:17:55;4.70;99.90
16198;DHT22;8206;51.440;6.914;2023-04-09T03:20:21;4.70;99.90
16198;DHT22;8206;51.440;6.914;2023-04-09T03:22:48;4.70;99.90
16198;DHT22;8206;51.440;6.914;2023-04-09T03:25:15;4.70;99.90
16198;DHT22;8206;51.440;6.914;2023-04-09T03:27:45;4.70;99.90
16198;DHT22;8206;51.440;6.914;2023-04-09T03:30:11;4.60;99.90
16198;DHT22;8206;51.440;6.914;2023-04-09T03:32:38;4.50;99.90
16198;DHT22;8206;51.440;6.914;2023-04-09T03:35:05;4.50;99.90
16198;DHT22;8206;51.440;6.914;2023-04-09T03:37:32;4.50;99.90
16198;DHT22;8206;51.440;6.914;2023-04-09T03:39:59;4.40;99.90
16198;DHT22;8206;51.440;6.914;2023-04-09T03:42:25;4.40;99.90
16198;DHT22;8206;51.440;6.914;2023-04-09T03:44:54;4.30;99.90
16198;DHT22;8206;51.440;6.914;2023-04-09T03:47:21;4.30;99.90
16198;DHT22;8206;51.440;6.914;2023-04-09T03:49:47;4.30;99.90
16198;DHT22;8206;51.440;6.914;2023-04-09T03:52:14;4.30;99.90
16198;DHT22;8206;51.440;6.914;2023-04-09T03:54:41;4.20;99.90
16198;DHT22;8206;51.440;6.914;2023-04-09T03:57:08;4.20;99.90
16198;DHT22;8206;51.440;6.914;2023-04-09T03:59:35;4.20;99.90
16198;DHT22;8206;51.440;6.914;2023-04-09T04:02:02;4.10;99.90
16198;DHT22;8206;51.440;6.914;2023-04-09T04:04:29;4.10;99.90
16198;DHT22;8206;51.440;6.914;2023-04-09T04:06:56;4.10;99.90
16198;DHT22;8206;51.440;6.914;2023-04-09T04:09:22;4.10;99.90
16198;DHT22;8206;51.440;6.914;2023-04-09T04:11:49;4.10;99.90
16198;DHT22;8206;51.440;6.914;2023-04-09T04:14:16;4.00;99.90
16198;DHT22;8206;51.440;6.914;2023-04-09T04:16:43;4.10;99.90
16198;DHT22;8206;51.440;6.914;2023-04-09T04:19:11;4.00;99.90
16198;DHT22;8206;51.440;6.914;2023-04-09T04:21:37;4.00;99.90
16198;DHT22;8206;51.440;6.914;2023-04-09T04:24:04;4.00;99.90
16198;DHT22;8206;51.440;6.914;2023-04-09T04:26:31;4.00;99.90
16198;DHT22;8206;51.440;6.914;2023-04-09T04:28:58;4.00;99.90
16198;DHT22;8206;51.440;6.914;2023-04-09T04:31:24;3.90;99.90
16198;DHT22;8206;51.440;6.914;2023-04-09T04:33:51;3.90;99.90
16198;DHT22;8206;51.440;6.914;2023-04-09T04:36:19;3.90;99.90
16198;DHT22;8206;51.440;6.914;2023-04-09T04:38:46;3.90;99.90
16198;DHT22;8206;51.440;6.914;2023-04-09T04:41:12;3.90;99.90
16198;DHT22;8206;51.440;6.914;2023-04-09T04:43:39;3.90;99.90
16198;DHT22;8206;51.440;6.914;2023-04-09T04:46:06;3.90;99.90
16198;DHT22;8206;51.440;6.914;2023-04-09T04:48:33;3.80;99.90
16198;DHT22;8206;51.440;6.914;2023-04-09T04:51:00;3.80;99.90
16198;DHT22;8206;51.440;6.914;2023-04-09T04:53:28;3.90;99.90
16198;DHT22;8206;51.440;6.914;2023-04-09T04:55:55;3.90;99.90
16198;DHT22;8206;51.440;6.914;2023-04-09T04:58:22;3.90;99.90
16198;DHT22;8206;51.440;6.914;2023-04-09T05:00:48;3.90;99.90
16198;DHT22;8206;51.440;6.914;2023-04-09T05:03:15;3.90;99.90
16198;DHT22;8206;51.440;6.914;2023-04-09T05:05:42;3.90;99.90
16198;DHT22;8206;51.440;6.914;2023-04-09T05:08:09;4.00;99.90
16198;DHT22;8206;51.440;6.914;2023-04-09T05:10:39;4.00;99.90
16198;DHT22;8206;51.440;6.914;2023-04-09T05:13:06;4.10;99.90
16198;DHT22;8206;51.440;6.914;2023-04-09T05:15:36;4.10;99.90
16198;DHT22;8206;51.440;6.914;2023-04-09T05:18:03;4.20;99.90
16198;DHT22;8206;51.440;6.914;2023-04-09T05:20:31;4.20;99.90
16198;DHT22;8206;51.440;6.914;2023-04-09T05:22:57;4.30;99.90
16198;DHT22;8206;51.440;6.914;2023-04-09T05:25:24;4.30;99.90
16198;DHT22;8206;51.440;6.914;2023-04-09T05:27:52;4.30;99.90
16198;DHT22;8206;51.440;6.914;2023-04-09T05:30:19;4.40;99.90
16198;DHT22;8206;51.440;6.914;2023-04-09T05:32:46;4.50;99.90
16198;DHT22;8206;51.440;6.914;2023-04-09T05:35:12;4.60;99.90
16198;DHT22;8206;51.440;6.914;2023-04-09T05:37:39;4.70;99.90
16198;DHT22;8206;51.440;6.914;2023-04-09T05:40:07;4.70;99.90
16198;DHT22;8206;51.440;6.914;2023-04-09T05:42:33;4.80;99.90
16198;DHT22;8206;51.440;6.914;2023-04-09T05:45:02;4.90;99.90
16198;DHT22;8206;51.440;6.914;2023-04-09T05:47:28;5.00;99.90
16198;DHT22;8206;51.440;6.914;2023-04-09T05:49:55;5.10;99.90
16198;DHT22;8206;51.440;6.914;2023-04-09T05:52:22;5.10;99.90
16198;DHT22;8206;51.440;6.914;2023-04-09T05:54:48;5.30;99.90
16198;DHT22;8206;51.440;6.914;2023-04-09T05:57:15;5.50;99.90
16198;DHT22;8206;51.440;6.914;2023-04-09T05:59:42;5.70;99.90
16198;DHT22;8206;51.440;6.914;2023-04-09T06:02:10;5.80;99.90
16198;DHT22;8206;51.440;6.914;2023-04-09T06:04:36;6.00;99.90
16198;DHT22;8206;51.440;6.914;2023-04-09T06:07:03;6.20;99.90
16198;DHT22;8206;51.440;6.914;2023-04-09T06:09:30;6.50;99.90
16198;DHT22;8206;51.440;6.914;2023-04-09T06:11:56;6.70;99.90
16198;DHT22;8206;51.440;6.914;2023-04-09T06:14:23;6.70;99.90
16198;DHT22;8206;51.440;6.914;2023-04-09T06:16:50;6.90;99.90
16198;DHT22;8206;51.440;6.914;2023-04-09T06:19:18;7.30;99.90
16198;DHT22;8206;51.440;6.914;2023-04-09T06:21:45;7.60;97.10
16198;DHT22;8206;51.440;6.914;2023-04-09T06:24:11;7.80;1.00
16198;DHT22;8206;51.440;6.914;2023-04-09T06:26:38;8.00;99.90
16198;DHT22;8206;51.440;6.914;2023-04-09T06:29:05;8.10;1.00
16198;DHT22;8206;51.440;6.914;2023-04-09T06:31:31;7.90;1.00
16198;DHT22;8206;51.440;6.914;2023-04-09T06:33:58;7.40;1.00
16198;DHT22;8206;51.440;6.914;2023-04-09T06:36:26;7.10;1.00
16198;DHT22;8206;51.440;6.914;2023-04-09T06:38:54;7.00;1.00
16198;DHT22;8206;51.440;6.914;2023-04-09T06:41:22;6.80;1.00
16198;DHT22;8206;51.440;6.914;2023-04-09T06:43:49;6.80;1.00
16198;DHT22;8206;51.440;6.914;2023-04-09T06:46:15;6.90;1.00
16198;DHT22;8206;51.440;6.914;2023-04-09T06:48:44;7.00;1.00
16198;DHT22;8206;51.440;6.914;2023-04-09T06:51:11;7.20;1.00
16198;DHT22;8206;51.440;6.914;2023-04-09T06:53:40;7.40;1.00
16198;DHT22;8206;51.440;6.914;2023-04-09T06:56:07;7.50;1.00
16198;DHT22;8206;51.440;6.914;2023-04-09T06:58:33;7.70;1.00
16198;DHT22;8206;51.440;6.914;2023-04-09T07:01:00;7.70;1.00
16198;DHT22;8206;51.440;6.914;2023-04-09T07:03:28;7.80;1.00
16198;DHT22;8206;51.440;6.914;2023-04-09T07:05:54;7.90;1.00
16198;DHT22;8206;51.440;6.914;2023-04-09T07:08:22;8.00;1.00
16198;DHT22;8206;51.440;6.914;2023-04-09T07:10:50;8.10;1.00
16198;DHT22;8206;51.440;6.914;2023-04-09T07:13:16;8.20;1.00
16198;DHT22;8206;51.440;6.914;2023-04-09T07:15:43;8.30;1.00
16198;DHT22;8206;51.440;6.914;2023-04-09T07:18:10;8.50;1.00
16198;DHT22;8206;51.440;6.914;2023-04-09T07:20:36;8.60;1.00
16198;DHT22;8206;51.440;6.914;2023-04-09T07:23:03;8.60;1.00
16198;DHT22;8206;51.440;6.914;2023-04-09T07:25:30;8.70;1.00
16198;DHT22;8206;51.440;6.914;2023-04-09T07:27:58;8.80;1.00
16198;DHT22;8206;51.440;6.914;2023-04-09T07:30:25;8.90;1.00
16198;DHT22;8206;51.440;6.914;2023-04-09T07:32:51;8.90;1.00
16198;DHT22;8206;51.440;6.914;2023-04-09T07:35:18;9.00;1.00
16198;DHT22;8206;51.440;6.914;2023-04-09T07:37:45;9.10;1.00
16198;DHT22;8206;51.440;6.914;2023-04-09T07:40:12;9.20;1.00
16198;DHT22;8206;51.440;6.914;2023-04-09T07:42:38;9.40;1.00
16198;DHT22;8206;51.440;6.914;2023-04-09T07:45:08;9.50;1.00
16198;DHT22;8206;51.440;6.914;2023-04-09T07:47:35;9.70;1.00
16198;DHT22;8206;51.440;6.914;2023-04-09T07:50:02;9.80;1.00
16198;DHT22;8206;51.440;6.914;2023-04-09T07:52:29;9.90;1.00
16198;DHT22;8206;51.440;6.914;2023-04-09T07:54:55;10.00;1.00
16198;DHT22;8206;51.440;6.914;2023-04-09T07:57:22;10.20;1.00
16198;DHT22;8206;51.440;6.914;2023-04-09T07:59:49;10.30;1.00
16198;DHT22;8206;51.440;6.914;2023-04-09T08:02:17;10.40;1.00
16198;DHT22;8206;51.440;6.914;2023-04-09T08:04:44;10.60;1.00
16198;DHT22;8206;51.440;6.914;2023-04-09T08:07:11;10.60;1.00
16198;DHT22;8206;51.440;6.914;2023-04-09T08:09:37;10.70;1.00
16198;DHT22;8206;51.440;6.914;2023-04-09T08:12:04;10.80;1.00
16198;DHT22;8206;51.440;6.914;2023-04-09T08:14:31;11.10;1.00
16198;DHT22;8206;51.440;6.914;2023-04-09T08:16:58;11.30;1.00
16198;DHT22;8206;51.440;6.914;2023-04-09T08:19:27;11.40;1.00
16198;DHT22;8206;51.440;6.914;2023-04-09T08:21:53;11.40;1.00
16198;DHT22;8206;51.440;6.914;2023-04-09T08:24:21;11.40;1.00
16198;DHT22;8206;51.440;6.914;2023-04-09T08:26:47;11.50;1.00
16198;DHT22;8206;51.440;6.914;2023-04-09T08:29:14;11.60;1.00
16198;DHT22;8206;51.440;6.914;2023-04-09T08:31:41;11.70;1.00
16198;DHT22;8206;51.440;6.914;2023-04-09T08:34:07;11.70;1.00
16198;DHT22;8206;51.440;6.914;2023-04-09T08:36:36;11.80;1.00
16198;DHT22;8206;51.440;6.914;2023-04-09T08:39:02;11.80;1.00
16198;DHT22;8206;51.440;6.914;2023-04-09T08:41:29;11.90;1.00
16198;DHT22;8206;51.440;6.914;2023-04-09T08:43:57;12.10;1.00
16198;DHT22;8206;51.440;6.914;2023-04-09T08:46:25;12.20;1.00
16198;DHT22;8206;51.440;6.914;2023-04-09T08:48:52;12.20;1.00
16198;DHT22;8206;51.440;6.914;2023-04-09T08:51:20;12.20;1.00
16198;DHT22;8206;51.440;6.914;2023-04-09T08:53:53;12.30;1.00
16198;DHT22;8206;51.440;6.914;2023-04-09T08:56:21;12.40;1.00
16198;DHT22;8206;51.440;6.914;2023-04-09T08:58:48;12.80;1.00
16198;DHT22;8206;51.440;6.914;2023-04-09T09:01:19;13.10;1.00
16198;DHT22;8206;51.440;6.914;2023-04-09T09:03:57;13.30;1.00
16198;DHT22;8206;51.440;6.914;2023-04-09T09:06:25;13.20;1.00
16198;DHT22;8206;51.440;6.914;2023-04-09T09:09:02;13.40;1.00
16198;DHT22;8206;51.440;6.914;2023-04-09T09:11:29;13.70;1.00
16198;DHT22;8206;51.440;6.914;2023-04-09T09:13:59;13.70;1.00
16198;DHT22;8206;51.440;6.914;2023-04-09T09:16:26;13.80;1.00
16198;DHT22;8206;51.440;6.914;2023-04-09T09:18:53;13.70;1.00
16198;DHT22;8206;51.440;6.914;2023-04-09T09:21:21;13.70;1.00
16198;DHT22;8206;51.440;6.914;2023-04-09T09:23:48;13.80;1.00
16198;DHT22;8206;51.440;6.914;2023-04-09T09:26:20;14.10;1.00
16198;DHT22;8206;51.440;6.914;2023-04-09T09:28:47;14.10;1.00
16198;DHT22;8206;51.440;6.914;2023-04-09T09:31:16;14.40;1.00
16198;DHT22;8206;51.440;6.914;2023-04-09T09:33:43;14.50;1.00
16198;DHT22;8206;51.440;6.914;2023-04-09T09:36:12;14.50;1.00
16198;DHT22;8206;51.440;6.914;2023-04-09T09:38:52;14.40;1.00
16198;DHT22;8206;51.440;6.914;2023-04-09T09:41:22;14.20;1.00
16198;DHT22;8206;51.440;6.914;2023-04-09T09:43:49;14.20;1.00
16198;DHT22;8206;51.440;6.914;2023-04-09T09:46:16;14.20;1.00
16198;DHT22;8206;51.440;6.914;2023-04-09T09:48:43;14.30;1.00
16198;DHT22;8206;51.440;6.914;2023-04-09T09:51:12;14.40;1.00
16198;DHT22;8206;51.440;6.914;2023-04-09T09:53:40;14.40;1.00
16198;DHT22;8206;51.440;6.914;2023-04-09T09:56:13;14.50;1.00
16198;DHT22;8206;51.440;6.914;2023-04-09T09:58:45;14.70;1.00
16198;DHT22;8206;51.440;6.914;2023-04-09T10:01:16;14.60;1.00
16198;DHT22;8206;51.440;6.914;2023-04-09T10:03:45;14.40;1.00
16198;DHT22;8206;51.440;6.914;2023-04-09T10:06:12;14.20;1.00
16198;DHT22;8206;51.440;6.914;2023-04-09T10:08:41;14.10;1.00
16198;DHT22;8206;51.440;6.914;2023-04-09T10:11:08;14.00;1.00
16198;DHT22;8206;51.440;6.914;2023-04-09T10:13:38;14.00;1.00
16198;DHT22;8206;51.440;6.914;2023-04-09T10:16:07;14.10;1.00
16198;DHT22;8206;51.440;6.914;2023-04-09T10:18:35;14.00;1.00
16198;DHT22;8206;51.440;6.914;2023-04-09T10:21:07;13.80;1.00
16198;DHT22;8206;51.440;6.914;2023-04-09T10:23:38;13.70;1.00
16198;DHT22;8206;51.440;6.914;2023-04-09T10:26:06;13.80;1.00
16198;DHT22;8206;51.440;6.914;2023-04-09T10:28:33;13.90;1.00
16198;DHT22;8206;51.440;6.914;2023-04-09T10:31:03;13.90;1.00
16198;DHT22;8206;51.440;6.914;2023-04-09T10:33:32;14.20;1.00
16198;DHT22;8206;51.440;6.914;2023-04-09T10:36:03;14.30;1.00
16198;DHT22;8206;51.440;6.914;2023-04-09T10:38:34;14.50;1.00
16198;DHT22;8206;51.440;6.914;2023-04-09T10:41:13;14.80;1.00
16198;DHT22;8206;51.440;6.914;2023-04-09T10:43:41;15.00;1.00
16198;DHT22;8206;51.440;6.914;2023-04-09T10:46:24;15.10;1.00
16198;DHT22;8206;51.440;6.914;2023-04-09T10:49:08;15.20;1.00
16198;DHT22;8206;51.440;6.914;2023-04-09T10:51:35;15.40;1.00
16198;DHT22;8206;51.440;6.914;2023-04-09T10:54:03;15.30;1.00
16198;DHT22;8206;51.440;6.914;2023-04-09T10:56:30;15.40;1.00
16198;DHT22;8206;51.440;6.914;2023-04-09T10:58:56;15.20;1.00
16198;DHT22;8206;51.440;6.914;2023-04-09T11:01:23;15.10;1.00
16198;DHT22;8206;51.440;6.914;2023-04-09T11:04:08;15.10;1.00
16198;DHT22;8206;51.440;6.914;2023-04-09T11:06:39;15.00;1.00
16198;DHT22;8206;51.440;6.914;2023-04-09T11:09:06;15.00;1.00
16198;DHT22;8206;51.440;6.914;2023-04-09T11:11:32;14.80;1.00
16198;DHT22;8206;51.440;6.914;2023-04-09T11:14:00;14.90;1.00
16198;DHT22;8206;51.440;6.914;2023-04-09T11:16:28;14.90;1.00
16198;DHT22;8206;51.440;6.914;2023-04-09T11:18:55;15.10;1.00
16198;DHT22;8206;51.440;6.914;2023-04-09T11:21:27;15.30;1.00
16198;DHT22;8206;51.440;6.914;2023-04-09T11:23:53;15.50;1.00
16198;DHT22;8206;51.440;6.914;2023-04-09T11:26:23;15.90;1.00
16198;DHT22;8206;51.440;6.914;2023-04-09T11:28:54;16.20;1.00
16198;DHT22;8206;51.440;6.914;2023-04-09T11:31:26;16.50;1.00
16198;DHT22;8206;51.440;6.914;2023-04-09T11:33:53;16.60;1.00
16198;DHT22;8206;51.440;6.914;2023-04-09T11:36:20;16.60;1.00
16198;DHT22;8206;51.440;6.914;2023-04-09T11:38:48;16.60;1.00
16198;DHT22;8206;51.440;6.914;2023-04-09T11:41:15;16.40;1.00
16198;DHT22;8206;51.440;6.914;2023-04-09T11:43:42;16.20;1.00
16198;DHT22;8206;51.440;6.914;2023-04-09T11:46:09;16.40;1.00
16198;DHT22;8206;51.440;6.914;2023-04-09T11:48:36;16.50;1.00
16198;DHT22;8206;51.440;6.914;2023-04-09T11:51:03;16.60;1.00
16198;DHT22;8206;51.440;6.914;2023-04-09T11:53:30;16.60;1.00
16198;DHT22;8206;51.440;6.914;2023-04-09T11:55:58;16.70;1.00
16198;DHT22;8206;51.440;6.914;2023-04-09T11:58:25;16.70;1.00
16198;DHT22;8206;51.440;6.914;2023-04-09T12:00:52;16.60;1.00
16198;DHT22;8206;51.440;6.914;2023-04-09T12:03:26;16.50;1.00
16198;DHT22;8206;51.440;6.914;2023-04-09T12:05:53;16.50;1.00
16198;DHT22;8206;51.440;6.914;2023-04-09T12:08:22;16.50;1.00
16198;DHT22;8206;51.440;6.914;2023-04-09T12:10:49;16.60;1.00
16198;DHT22;8206;51.440;6.914;2023-04-09T12:13:18;16.80;1.00
16198;DHT22;8206;51.440;6.914;2023-04-09T12:15:47;16.90;1.00
16198;DHT22;8206;51.440;6.914;2023-04-09T12:18:14;17.00;1.00
16198;DHT22;8206;51.440;6.914;2023-04-09T12:20:42;16.90;1.00
16198;DHT22;8206;51.440;6.914;2023-04-09T12:23:10;16.80;1.00
16198;DHT22;8206;51.440;6.914;2023-04-09T12:25:39;16.80;1.00
16198;DHT22;8206;51.440;6.914;2023-04-09T12:28:10;16.80;1.00
16198;DHT22;8206;51.440;6.914;2023-04-09T12:30:39;16.70;1.00
16198;DHT22;8206;51.440;6.914;2023-04-09T12:33:06;16.90;1.00
16198;DHT22;8206;51.440;6.914;2023-04-09T12:35:32;16.80;1.00
16198;DHT22;8206;51.440;6.914;2023-04-09T12:38:00;17.00;1.00
16198;DHT22;8206;51.440;6.914;2023-04-09T12:40:26;17.00;1.00
16198;DHT22;8206;51.440;6.914;2023-04-09T12:42:53;16.80;1.00
16198;DHT22;8206;51.440;6.914;2023-04-09T12:45:20;16.70;1.00
16198;DHT22;8206;51.440;6.914;2023-04-09T12:47:48;16.70;1.00
16198;DHT22;8206;51.440;6.914;2023-04-09T12:50:15;16.70;1.00
16198;DHT22;8206;51.440;6.914;2023-04-09T12:52:42;16.70;1.00
16198;DHT22;8206;51.440;6.914;2023-04-09T12:55:10;16.60;1.00
16198;DHT22;8206;51.440;6.914;2023-04-09T12:57:38;16.50;1.00
16198;DHT22;8206;51.440;6.914;2023-04-09T13:00:06;16.50;1.00
16198;DHT22;8206;51.440;6.914;2023-04-09T13:02:33;16.70;1.00
16198;DHT22;8206;51.440;6.914;2023-04-09T13:05:02;16.90;1.00
16198;DHT22;8206;51.440;6.914;2023-04-09T13:07:29;17.10;1.00
16198;DHT22;8206;51.440;6.914;2023-04-09T13:09:56;17.40;1.00
16198;DHT22;8206;51.440;6.914;2023-04-09T13:12:23;17.70;1.00
16198;DHT22;8206;51.440;6.914;2023-04-09T13:14:52;18.00;1.00
16198;DHT22;8206;51.440;6.914;2023-04-09T13:17:20;17.90;1.00
16198;DHT22;8206;51.440;6.914;2023-04-09T13:19:46;17.50;1.00
16198;DHT22;8206;51.440;6.914;2023-04-09T13:22:14;17.40;1.00
16198;DHT22;8206;51.440;6.914;2023-04-09T13:24:41;17.00;1.00
16198;DHT22;8206;51.440;6.914;2023-04-09T13:27:09;16.70;1.00
16198;DHT22;8206;51.440;6.914;2023-04-09T13:29:35;16.40;1.00
16198;DHT22;8206;51.440;6.914;2023-04-09T13:32:02;16.20;1.00
16198;DHT22;8206;51.440;6.914;2023-04-09T13:34:31;15.90;1.00
16198;DHT22;8206;51.440;6.914;2023-04-09T13:36:58;15.80;1.00
16198;DHT22;8206;51.440;6.914;2023-04-09T13:39:26;15.70;1.00
16198;DHT22;8206;51.440;6.914;2023-04-09T13:41:53;15.80;1.00
16198;DHT22;8206;51.440;6.914;2023-04-09T13:44:20;16.00;1.00
16198;DHT22;8206;51.440;6.914;2023-04-09T13:46:47;16.30;1.00
16198;DHT22;8206;51.440;6.914;2023-04-09T13:49:14;16.60;1.00
16198;DHT22;8206;51.440;6.914;2023-04-09T13:51:41;16.60;1.00
16198;DHT22;8206;51.440;6.914;2023-04-09T13:54:07;16.60;1.00
16198;DHT22;8206;51.440;6.914;2023-04-09T13:56:37;16.80;1.00
16198;DHT22;8206;51.440;6.914;2023-04-09T13:59:03;16.90;1.00
16198;DHT22;8206;51.440;6.914;2023-04-09T14:01:31;16.90;1.00
16198;DHT22;8206;51.440;6.914;2023-04-09T14:03:57;16.80;1.00
16198;DHT22;8206;51.440;6.914;2023-04-09T14:06:24;16.90;1.00
16198;DHT22;8206;51.440;6.914;2023-04-09T14:08:51;17.00;1.00
16198;DHT22;8206;51.440;6.914;2023-04-09T14:11:18;17.10;1.00
16198;DHT22;8206;51.440;6.914;2023-04-09T14:13:46;16.90;1.00
16198;DHT22;8206;51.440;6.914;2023-04-09T14:16:13;16.60;1.00
16198;DHT22;8206;51.440;6.914;2023-04-09T14:18:39;16.40;1.00
16198;DHT22;8206;51.440;6.914;2023-04-09T14:21:07;16.30;1.00
16198;DHT22;8206;51.440;6.914;2023-04-09T14:23:33;16.30;1.00
16198;DHT22;8206;51.440;6.914;2023-04-09T14:26:01;16.00;1.00
16198;DHT22;8206;51.440;6.914;2023-04-09T14:28:28;15.90;1.00
16198;DHT22;8206;51.440;6.914;2023-04-09T14:30:57;15.70;1.00
16198;DHT22;8206;51.440;6.914;2023-04-09T14:33:24;15.60;1.00
16198;DHT22;8206;51.440;6.914;2023-04-09T14:35:51;15.60;1.00
16198;DHT22;8206;51.440;6.914;2023-04-09T14:38:17;15.70;1.00
16198;DHT22;8206;51.440;6.914;2023-04-09T14:40:44;15.80;1.00
16198;DHT22;8206;51.440;6.914;2023-04-09T14:43:11;15.90;1.00
16198;DHT22;8206;51.440;6.914;2023-04-09T14:45:37;15.90;1.00
16198;DHT22;8206;51.440;6.914;2023-04-09T14:48:05;15.90;1.00
16198;DHT22;8206;51.440;6.914;2023-04-09T14:50:32;15.80;1.00
16198;DHT22;8206;51.440;6.914;2023-04-09T14:53:00;15.90;1.00
16198;DHT22;8206;51.440;6.914;2023-04-09T14:55:26;16.00;1.00
16198;DHT22;8206;51.440;6.914;2023-04-09T14:57:53;16.10;1.00
16198;DHT22;8206;51.440;6.914;2023-04-09T15:00:20;16.20;1.00
16198;DHT22;8206;51.440;6.914;2023-04-09T15:02:47;16.50;1.00
16198;DHT22;8206;51.440;6.914;2023-04-09T15:05:15;16.70;1.00
16198;DHT22;8206;51.440;6.914;2023-04-09T15:07:41;16.90;1.00
16198;DHT22;8206;51.440;6.914;2023-04-09T15:10:09;16.90;1.00
16198;DHT22;8206;51.440;6.914;2023-04-09T15:12:36;17.10;1.00
16198;DHT22;8206;51.440;6.914;2023-04-09T15:15:05;17.10;1.00
16198;DHT22;8206;51.440;6.914;2023-04-09T15:17:32;17.10;1.00
16198;DHT22;8206;51.440;6.914;2023-04-09T15:19:58;17.20;1.00
16198;DHT22;8206;51.440;6.914;2023-04-09T15:22:26;17.00;1.00
16198;DHT22;8206;51.440;6.914;2023-04-09T15:24:53;16.70;1.00
16198;DHT22;8206;51.440;6.914;2023-04-09T15:27:20;16.50;1.00
16198;DHT22;8206;51.440;6.914;2023-04-09T15:29:46;16.20;1.00
16198;DHT22;8206;51.440;6.914;2023-04-09T15:32:13;16.00;1.00
16198;DHT22;8206;51.440;6.914;2023-04-09T15:34:39;15.80;1.00
16198;DHT22;8206;51.440;6.914;2023-04-09T15:37:06;15.70;1.00
16198;DHT22;8206;51.440;6.914;2023-04-09T15:39:34;15.40;1.00
16198;DHT22;8206;51.440;6.914;2023-04-09T15:42:01;15.40;1.00
16198;DHT22;8206;51.440;6.914;2023-04-09T15:44:27;15.30;1.00
16198;DHT22;8206;51.440;6.914;2023-04-09T15:46:54;15.20;1.00
16198;DHT22;8206;51.440;6.914;2023-04-09T15:49:21;15.20;1.00
16198;DHT22;8206;51.440;6.914;2023-04-09T15:51:48;15.10;1.00
16198;DHT22;8206;51.440;6.914;2023-04-09T15:54:14;14.90;1.00
16198;DHT22;8206;51.440;6.914;2023-04-09T15:56:42;15.00;1.00
16198;DHT22;8206;51.440;6.914;2023-04-09T15:59:09;15.00;1.00
16198;DHT22;8206;51.440;6.914;2023-04-09T16:01:36;14.90;1.00
16198;DHT22;8206;51.440;6.914;2023-04-09T16:04:03;14.80;1.00
16198;DHT22;8206;51.440;6.914;2023-04-09T16:06:30;14.90;1.00